This is the latest recevied weather packets stored in our database for station/object N3WPH. If no packets are shown the sender has not sent any weather packets the latest 10 day(s).
| Time | Temp. | Humidity | Pressure | Rain* | Wind** | Luminosity | Snow |
|---|---|---|---|---|---|---|---|
| 1777817857 | 8.33° C | 53% | 1013.7 hPa | 0 mm | - | 551 W/m² | - |
| 1777817555 | 8.89° C | 51% | 1013.6 hPa | 0 mm | - | 166 W/m² | - |
| 1777817251 | 8.89° C | 57% | 1013.7 hPa | 0 mm | - | 718 W/m² | - |
| 1777816948 | 7.22° C | 57% | 1013.6 hPa | 0 mm | - | 429 W/m² | - |
| 1777816644 | 7.78° C | 58% | 1013.7 hPa | 0 mm | - | 163 W/m² | - |
| 1777816341 | 8.33° C | 57% | 1013.6 hPa | 0 mm | - | 646 W/m² | - |
| 1777816039 | 6.67° C | 61% | 1013.7 hPa | 0 mm | - | 335 W/m² | - |
| 1777815736 | 7.22° C | 59% | 1013.8 hPa | 0 mm | - | 149 W/m² | - |
| 1777815434 | 6.67° C | 60% | 1013.9 hPa | 0 mm | - | 191 W/m² | - |
| 1777815131 | 8.33° C | 57% | 1013.8 hPa | 0 mm | - | 166 W/m² | - |
| 1777814827 | 7.78° C | 58% | 1013.9 hPa | 0 mm | - | 506 W/m² | - |
| 1777814523 | 7.22° C | 60% | 1013.9 hPa | 0 mm | - | 427 W/m² | - |
| 1777814221 | 6.67° C | 62% | 1013.7 hPa | 0 mm | - | 463 W/m² | - |
| 1777813918 | 6.67° C | 64% | 1013.8 hPa | 0 mm | - | 468 W/m² | - |
| 1777813615 | 6.67° C | 62% | 1013.8 hPa | 0 mm | - | 346 W/m² | - |
| 1777813312 | 6.67° C | 65% | 1013.7 hPa | 0 mm | - | 435 W/m² | - |
| 1777813010 | 6.67° C | 66% | 1013.8 hPa | 0 mm | - | 234 W/m² | - |
| 1777812708 | 6.67° C | 66% | 1013.9 hPa | 0 mm | - | 163 W/m² | - |
| 1777812404 | 7.22° C | 64% | 1013.9 hPa | 0 mm | - | 165 W/m² | - |
| 1777812102 | 7.22° C | 66% | 1013.8 hPa | 0 mm | - | 350 W/m² | - |
| 1777811800 | 6.67° C | 68% | 1013.8 hPa | 0 mm | - | 318 W/m² | - |
| 1777811497 | 6.67° C | 68% | 1013.9 hPa | 0 mm | - | 276 W/m² | - |
| 1777811193 | 6.11° C | 71% | 1013.9 hPa | 0 mm | - | 262 W/m² | - |
| 1777810891 | 5.56° C | 71% | 1013.8 hPa | 0 mm | - | 175 W/m² | - |
| 1777810587 | 5° C | 72% | 1013.8 hPa | 0 mm | - | 170 W/m² | - |
* Rain latest hour (hover to see other rain measurements)
** Current wind speed in m/s (hover to see current wind gust speed)